sensor_id;sensor_type;location;lat;lon;timestamp;P1;durP1;ratioP1;P2;durP2;ratioP2
49237;SDS011;35069;47.906;1.892;2023-03-05T00:00:09;12.32;;;7.93;;
49237;SDS011;35069;47.906;1.892;2023-03-05T00:02:36;16.95;;;8.60;;
49237;SDS011;35069;47.906;1.892;2023-03-05T00:05:01;13.57;;;8.07;;
49237;SDS011;35069;47.906;1.892;2023-03-05T00:07:27;12.88;;;8.10;;
49237;SDS011;35069;47.906;1.892;2023-03-05T00:09:53;15.63;;;8.82;;
49237;SDS011;35069;47.906;1.892;2023-03-05T00:12:18;12.68;;;8.85;;
49237;SDS011;35069;47.906;1.892;2023-03-05T00:14:44;15.13;;;8.35;;
49237;SDS011;35069;47.906;1.892;2023-03-05T00:17:09;13.10;;;7.95;;
49237;SDS011;35069;47.906;1.892;2023-03-05T00:19:35;17.10;;;9.02;;
49237;SDS011;35069;47.906;1.892;2023-03-05T00:22:01;14.60;;;8.07;;
49237;SDS011;35069;47.906;1.892;2023-03-05T00:24:26;16.60;;;9.65;;
49237;SDS011;35069;47.906;1.892;2023-03-05T00:26:52;16.85;;;7.78;;
49237;SDS011;35069;47.906;1.892;2023-03-05T00:29:19;11.25;;;8.27;;
49237;SDS011;35069;47.906;1.892;2023-03-05T00:31:45;11.05;;;7.47;;
49237;SDS011;35069;47.906;1.892;2023-03-05T00:34:13;17.55;;;8.63;;
49237;SDS011;35069;47.906;1.892;2023-03-05T00:36:40;12.75;;;8.00;;
49237;SDS011;35069;47.906;1.892;2023-03-05T00:39:07;15.52;;;9.43;;
49237;SDS011;35069;47.906;1.892;2023-03-05T00:41:33;13.80;;;8.48;;
49237;SDS011;35069;47.906;1.892;2023-03-05T00:43:59;17.05;;;8.32;;
49237;SDS011;35069;47.906;1.892;2023-03-05T00:46:24;13.93;;;8.43;;
49237;SDS011;35069;47.906;1.892;2023-03-05T00:48:51;13.77;;;8.18;;
49237;SDS011;35069;47.906;1.892;2023-03-05T00:51:17;13.00;;;7.85;;
49237;SDS011;35069;47.906;1.892;2023-03-05T00:53:44;11.45;;;8.05;;
49237;SDS011;35069;47.906;1.892;2023-03-05T00:56:09;14.32;;;8.48;;
49237;SDS011;35069;47.906;1.892;2023-03-05T00:58:35;12.88;;;8.18;;
49237;SDS011;35069;47.906;1.892;2023-03-05T01:01:01;14.93;;;8.43;;
49237;SDS011;35069;47.906;1.892;2023-03-05T01:03:28;13.30;;;8.60;;
49237;SDS011;35069;47.906;1.892;2023-03-05T01:05:55;16.70;;;8.85;;
49237;SDS011;35069;47.906;1.892;2023-03-05T01:08:21;14.57;;;7.85;;
49237;SDS011;35069;47.906;1.892;2023-03-05T01:10:47;15.55;;;8.77;;
49237;SDS011;35069;47.906;1.892;2023-03-05T01:13:13;12.88;;;8.75;;
49237;SDS011;35069;47.906;1.892;2023-03-05T01:15:38;13.65;;;7.50;;
49237;SDS011;35069;47.906;1.892;2023-03-05T01:18:04;15.80;;;8.60;;
49237;SDS011;35069;47.906;1.892;2023-03-05T01:20:30;9.98;;;7.60;;
49237;SDS011;35069;47.906;1.892;2023-03-05T01:22:55;13.88;;;8.65;;
49237;SDS011;35069;47.906;1.892;2023-03-05T01:25:23;11.65;;;7.85;;
49237;SDS011;35069;47.906;1.892;2023-03-05T01:27:49;14.02;;;7.85;;
49237;SDS011;35069;47.906;1.892;2023-03-05T01:30:15;10.88;;;7.85;;
49237;SDS011;35069;47.906;1.892;2023-03-05T01:32:41;16.95;;;8.63;;
49237;SDS011;35069;47.906;1.892;2023-03-05T01:35:07;13.82;;;8.35;;
49237;SDS011;35069;47.906;1.892;2023-03-05T01:37:34;13.85;;;9.02;;
49237;SDS011;35069;47.906;1.892;2023-03-05T01:40:00;17.35;;;10.73;;
49237;SDS011;35069;47.906;1.892;2023-03-05T01:42:26;18.23;;;8.30;;
49237;SDS011;35069;47.906;1.892;2023-03-05T01:45:26;19.23;;;10.02;;
49237;SDS011;35069;47.906;1.892;2023-03-05T01:47:44;22.73;;;10.47;;
49237;SDS011;35069;47.906;1.892;2023-03-05T01:50:12;16.27;;;8.77;;
49237;SDS011;35069;47.906;1.892;2023-03-05T01:52:42;17.15;;;8.52;;
49237;SDS011;35069;47.906;1.892;2023-03-05T01:55:15;15.63;;;9.70;;
49237;SDS011;35069;47.906;1.892;2023-03-05T01:57:45;14.48;;;9.13;;
49237;SDS011;35069;47.906;1.892;2023-03-05T02:00:15;18.08;;;9.20;;
49237;SDS011;35069;47.906;1.892;2023-03-05T02:02:44;15.50;;;8.43;;
49237;SDS011;35069;47.906;1.892;2023-03-05T02:05:18;16.25;;;10.15;;
49237;SDS011;35069;47.906;1.892;2023-03-05T02:07:52;15.48;;;9.35;;
49237;SDS011;35069;47.906;1.892;2023-03-05T02:10:26;16.60;;;9.40;;
49237;SDS011;35069;47.906;1.892;2023-03-05T02:12:58;14.40;;;8.73;;
49237;SDS011;35069;47.906;1.892;2023-03-05T02:15:27;14.70;;;9.00;;
49237;SDS011;35069;47.906;1.892;2023-03-05T02:17:54;15.95;;;9.55;;
49237;SDS011;35069;47.906;1.892;2023-03-05T02:20:24;17.45;;;10.65;;
49237;SDS011;35069;47.906;1.892;2023-03-05T02:22:50;14.70;;;9.68;;
49237;SDS011;35069;47.906;1.892;2023-03-05T02:25:23;14.50;;;9.60;;
49237;SDS011;35069;47.906;1.892;2023-03-05T02:28:12;15.38;;;10.05;;
49237;SDS011;35069;47.906;1.892;2023-03-05T02:30:40;17.20;;;8.48;;
49237;SDS011;35069;47.906;1.892;2023-03-05T02:33:05;18.88;;;10.27;;
49237;SDS011;35069;47.906;1.892;2023-03-05T02:35:31;17.98;;;10.00;;
49237;SDS011;35069;47.906;1.892;2023-03-05T02:37:57;16.48;;;10.60;;
49237;SDS011;35069;47.906;1.892;2023-03-05T02:40:23;15.55;;;9.95;;
49237;SDS011;35069;47.906;1.892;2023-03-05T02:42:49;19.17;;;9.63;;
49237;SDS011;35069;47.906;1.892;2023-03-05T02:45:15;18.65;;;9.00;;
49237;SDS011;35069;47.906;1.892;2023-03-05T02:47:40;17.70;;;9.32;;
49237;SDS011;35069;47.906;1.892;2023-03-05T02:50:07;17.27;;;10.20;;
49237;SDS011;35069;47.906;1.892;2023-03-05T02:52:34;15.13;;;9.93;;
49237;SDS011;35069;47.906;1.892;2023-03-05T02:54:59;15.48;;;10.90;;
49237;SDS011;35069;47.906;1.892;2023-03-05T02:57:25;17.35;;;9.35;;
49237;SDS011;35069;47.906;1.892;2023-03-05T02:59:51;18.77;;;10.73;;
49237;SDS011;35069;47.906;1.892;2023-03-05T03:02:17;18.73;;;9.88;;
49237;SDS011;35069;47.906;1.892;2023-03-05T03:04:43;16.85;;;9.68;;
49237;SDS011;35069;47.906;1.892;2023-03-05T03:07:10;15.35;;;10.10;;
49237;SDS011;35069;47.906;1.892;2023-03-05T03:09:36;25.40;;;12.45;;
49237;SDS011;35069;47.906;1.892;2023-03-05T03:12:02;18.48;;;9.75;;
49237;SDS011;35069;47.906;1.892;2023-03-05T03:14:32;17.65;;;10.50;;
49237;SDS011;35069;47.906;1.892;2023-03-05T03:17:02;16.45;;;10.32;;
49237;SDS011;35069;47.906;1.892;2023-03-05T03:19:32;16.42;;;9.95;;
49237;SDS011;35069;47.906;1.892;2023-03-05T03:21:59;21.25;;;10.85;;
49237;SDS011;35069;47.906;1.892;2023-03-05T03:24:24;16.63;;;10.18;;
49237;SDS011;35069;47.906;1.892;2023-03-05T03:26:50;19.15;;;10.70;;
49237;SDS011;35069;47.906;1.892;2023-03-05T03:29:16;17.55;;;10.50;;
49237;SDS011;35069;47.906;1.892;2023-03-05T03:31:45;18.27;;;9.75;;
49237;SDS011;35069;47.906;1.892;2023-03-05T03:34:11;15.80;;;10.68;;
49237;SDS011;35069;47.906;1.892;2023-03-05T03:36:39;14.98;;;9.60;;
49237;SDS011;35069;47.906;1.892;2023-03-05T03:39:04;20.17;;;10.40;;
49237;SDS011;35069;47.906;1.892;2023-03-05T03:41:30;13.60;;;9.95;;
49237;SDS011;35069;47.906;1.892;2023-03-05T03:43:57;20.70;;;11.45;;
49237;SDS011;35069;47.906;1.892;2023-03-05T03:46:22;21.55;;;11.35;;
49237;SDS011;35069;47.906;1.892;2023-03-05T03:48:49;20.48;;;11.38;;
49237;SDS011;35069;47.906;1.892;2023-03-05T03:51:15;16.88;;;10.00;;
49237;SDS011;35069;47.906;1.892;2023-03-05T03:53:41;16.17;;;10.48;;
49237;SDS011;35069;47.906;1.892;2023-03-05T03:56:06;14.63;;;9.82;;
49237;SDS011;35069;47.906;1.892;2023-03-05T03:58:32;16.88;;;10.68;;
49237;SDS011;35069;47.906;1.892;2023-03-05T04:00:57;18.40;;;11.63;;
49237;SDS011;35069;47.906;1.892;2023-03-05T04:03:23;15.90;;;10.18;;
49237;SDS011;35069;47.906;1.892;2023-03-05T04:05:49;20.40;;;10.60;;
49237;SDS011;35069;47.906;1.892;2023-03-05T04:08:14;17.52;;;9.90;;
49237;SDS011;35069;47.906;1.892;2023-03-05T04:10:40;18.25;;;10.73;;
49237;SDS011;35069;47.906;1.892;2023-03-05T04:13:06;18.17;;;10.68;;
49237;SDS011;35069;47.906;1.892;2023-03-05T04:15:31;26.30;;;11.05;;
49237;SDS011;35069;47.906;1.892;2023-03-05T04:17:57;20.67;;;11.10;;
49237;SDS011;35069;47.906;1.892;2023-03-05T04:20:23;18.10;;;9.98;;
49237;SDS011;35069;47.906;1.892;2023-03-05T04:22:49;22.42;;;10.30;;
49237;SDS011;35069;47.906;1.892;2023-03-05T04:25:15;15.73;;;9.15;;
49237;SDS011;35069;47.906;1.892;2023-03-05T04:27:40;17.95;;;10.98;;
49237;SDS011;35069;47.906;1.892;2023-03-05T04:30:07;18.50;;;9.60;;
49237;SDS011;35069;47.906;1.892;2023-03-05T04:32:33;19.83;;;8.90;;
49237;SDS011;35069;47.906;1.892;2023-03-05T04:34:59;15.45;;;9.85;;
49237;SDS011;35069;47.906;1.892;2023-03-05T04:37:25;14.80;;;9.82;;
49237;SDS011;35069;47.906;1.892;2023-03-05T04:39:51;15.68;;;9.45;;
49237;SDS011;35069;47.906;1.892;2023-03-05T04:42:17;13.93;;;9.85;;
49237;SDS011;35069;47.906;1.892;2023-03-05T04:44:44;18.52;;;9.50;;
49237;SDS011;35069;47.906;1.892;2023-03-05T04:47:10;12.07;;;8.60;;
49237;SDS011;35069;47.906;1.892;2023-03-05T04:49:36;14.20;;;9.35;;
49237;SDS011;35069;47.906;1.892;2023-03-05T04:52:02;22.08;;;10.73;;
49237;SDS011;35069;47.906;1.892;2023-03-05T04:54:27;16.13;;;9.43;;
49237;SDS011;35069;47.906;1.892;2023-03-05T04:56:53;19.63;;;10.75;;
49237;SDS011;35069;47.906;1.892;2023-03-05T04:59:19;20.55;;;9.85;;
49237;SDS011;35069;47.906;1.892;2023-03-05T05:01:44;15.85;;;8.52;;
49237;SDS011;35069;47.906;1.892;2023-03-05T05:04:10;14.23;;;8.90;;
49237;SDS011;35069;47.906;1.892;2023-03-05T05:06:35;19.33;;;10.75;;
49237;SDS011;35069;47.906;1.892;2023-03-05T05:09:01;21.88;;;11.15;;
49237;SDS011;35069;47.906;1.892;2023-03-05T05:11:27;21.23;;;10.15;;
49237;SDS011;35069;47.906;1.892;2023-03-05T05:13:52;13.30;;;8.73;;
49237;SDS011;35069;47.906;1.892;2023-03-05T05:16:18;20.88;;;10.48;;
49237;SDS011;35069;47.906;1.892;2023-03-05T05:18:44;14.70;;;9.10;;
49237;SDS011;35069;47.906;1.892;2023-03-05T05:21:10;17.55;;;9.95;;
49237;SDS011;35069;47.906;1.892;2023-03-05T05:23:38;13.82;;;9.38;;
49237;SDS011;35069;47.906;1.892;2023-03-05T05:26:04;16.42;;;9.68;;
49237;SDS011;35069;47.906;1.892;2023-03-05T05:28:31;18.60;;;10.35;;
49237;SDS011;35069;47.906;1.892;2023-03-05T05:30:57;15.73;;;11.07;;
49237;SDS011;35069;47.906;1.892;2023-03-05T05:33:23;14.82;;;10.07;;
49237;SDS011;35069;47.906;1.892;2023-03-05T05:35:49;16.38;;;10.13;;
49237;SDS011;35069;47.906;1.892;2023-03-05T05:38:15;18.67;;;10.00;;
49237;SDS011;35069;47.906;1.892;2023-03-05T05:40:41;17.65;;;8.95;;
49237;SDS011;35069;47.906;1.892;2023-03-05T05:43:06;16.67;;;10.70;;
49237;SDS011;35069;47.906;1.892;2023-03-05T05:45:32;20.98;;;10.38;;
49237;SDS011;35069;47.906;1.892;2023-03-05T05:47:58;21.08;;;12.35;;
49237;SDS011;35069;47.906;1.892;2023-03-05T05:50:24;19.08;;;11.15;;
49237;SDS011;35069;47.906;1.892;2023-03-05T05:52:51;19.55;;;11.30;;
49237;SDS011;35069;47.906;1.892;2023-03-05T05:55:16;20.27;;;11.43;;
49237;SDS011;35069;47.906;1.892;2023-03-05T05:57:42;18.67;;;10.30;;
49237;SDS011;35069;47.906;1.892;2023-03-05T06:00:09;18.73;;;10.48;;
49237;SDS011;35069;47.906;1.892;2023-03-05T06:02:39;18.77;;;11.07;;
49237;SDS011;35069;47.906;1.892;2023-03-05T06:05:05;16.83;;;10.43;;
49237;SDS011;35069;47.906;1.892;2023-03-05T06:07:33;20.95;;;12.30;;
49237;SDS011;35069;47.906;1.892;2023-03-05T06:09:59;17.08;;;11.07;;
49237;SDS011;35069;47.906;1.892;2023-03-05T06:12:25;15.10;;;8.93;;
49237;SDS011;35069;47.906;1.892;2023-03-05T06:14:50;13.27;;;9.43;;
49237;SDS011;35069;47.906;1.892;2023-03-05T06:17:16;15.13;;;10.75;;
49237;SDS011;35069;47.906;1.892;2023-03-05T06:19:43;20.35;;;11.05;;
49237;SDS011;35069;47.906;1.892;2023-03-05T06:22:08;17.77;;;10.38;;
49237;SDS011;35069;47.906;1.892;2023-03-05T06:24:34;17.85;;;11.55;;
49237;SDS011;35069;47.906;1.892;2023-03-05T06:27:01;19.00;;;11.05;;
49237;SDS011;35069;47.906;1.892;2023-03-05T06:29:27;24.80;;;11.23;;
49237;SDS011;35069;47.906;1.892;2023-03-05T06:31:52;17.63;;;9.90;;
49237;SDS011;35069;47.906;1.892;2023-03-05T06:34:18;17.58;;;10.75;;
49237;SDS011;35069;47.906;1.892;2023-03-05T06:36:44;17.98;;;11.10;;
49237;SDS011;35069;47.906;1.892;2023-03-05T06:39:09;16.92;;;11.30;;
49237;SDS011;35069;47.906;1.892;2023-03-05T06:41:35;23.05;;;11.45;;
49237;SDS011;35069;47.906;1.892;2023-03-05T06:44:01;21.52;;;11.48;;
49237;SDS011;35069;47.906;1.892;2023-03-05T06:46:31;20.38;;;11.18;;
49237;SDS011;35069;47.906;1.892;2023-03-05T06:48:59;21.98;;;12.50;;
49237;SDS011;35069;47.906;1.892;2023-03-05T06:51:27;19.50;;;12.40;;
49237;SDS011;35069;47.906;1.892;2023-03-05T06:54:01;21.38;;;12.90;;
49237;SDS011;35069;47.906;1.892;2023-03-05T06:56:29;21.42;;;12.07;;
49237;SDS011;35069;47.906;1.892;2023-03-05T06:58:54;24.05;;;11.95;;
49237;SDS011;35069;47.906;1.892;2023-03-05T07:01:20;19.13;;;12.55;;
49237;SDS011;35069;47.906;1.892;2023-03-05T07:03:48;22.25;;;11.88;;
49237;SDS011;35069;47.906;1.892;2023-03-05T07:06:14;18.33;;;11.20;;
49237;SDS011;35069;47.906;1.892;2023-03-05T07:08:41;19.98;;;12.40;;
49237;SDS011;35069;47.906;1.892;2023-03-05T07:11:12;20.23;;;12.15;;
49237;SDS011;35069;47.906;1.892;2023-03-05T07:13:40;25.00;;;11.57;;
49237;SDS011;35069;47.906;1.892;2023-03-05T07:16:08;17.92;;;11.77;;
49237;SDS011;35069;47.906;1.892;2023-03-05T07:18:35;21.17;;;12.05;;
49237;SDS011;35069;47.906;1.892;2023-03-05T07:21:04;19.48;;;12.32;;
49237;SDS011;35069;47.906;1.892;2023-03-05T07:23:32;21.52;;;12.23;;
49237;SDS011;35069;47.906;1.892;2023-03-05T07:26:02;18.70;;;12.15;;
49237;SDS011;35069;47.906;1.892;2023-03-05T07:28:29;17.80;;;11.85;;
49237;SDS011;35069;47.906;1.892;2023-03-05T07:30:58;21.42;;;12.50;;
49237;SDS011;35069;47.906;1.892;2023-03-05T07:33:26;21.52;;;12.35;;
49237;SDS011;35069;47.906;1.892;2023-03-05T07:35:52;19.77;;;11.65;;
49237;SDS011;35069;47.906;1.892;2023-03-05T07:38:18;21.85;;;13.35;;
49237;SDS011;35069;47.906;1.892;2023-03-05T07:40:44;20.52;;;12.88;;
49237;SDS011;35069;47.906;1.892;2023-03-05T07:43:10;25.27;;;12.45;;
49237;SDS011;35069;47.906;1.892;2023-03-05T07:45:39;18.90;;;12.35;;
49237;SDS011;35069;47.906;1.892;2023-03-05T07:48:05;19.85;;;12.27;;
49237;SDS011;35069;47.906;1.892;2023-03-05T07:50:31;22.33;;;13.32;;
49237;SDS011;35069;47.906;1.892;2023-03-05T07:52:57;18.05;;;12.30;;
49237;SDS011;35069;47.906;1.892;2023-03-05T07:55:24;19.90;;;11.25;;
49237;SDS011;35069;47.906;1.892;2023-03-05T07:57:49;21.00;;;13.57;;
49237;SDS011;35069;47.906;1.892;2023-03-05T08:00:15;20.58;;;13.95;;
49237;SDS011;35069;47.906;1.892;2023-03-05T08:02:41;24.17;;;14.00;;
49237;SDS011;35069;47.906;1.892;2023-03-05T08:05:07;24.98;;;14.35;;
49237;SDS011;35069;47.906;1.892;2023-03-05T08:07:32;21.90;;;14.63;;
49237;SDS011;35069;47.906;1.892;2023-03-05T08:09:58;23.98;;;13.50;;
49237;SDS011;35069;47.906;1.892;2023-03-05T08:12:24;26.52;;;14.10;;
49237;SDS011;35069;47.906;1.892;2023-03-05T08:14:49;22.83;;;14.45;;
49237;SDS011;35069;47.906;1.892;2023-03-05T08:17:15;26.77;;;14.40;;
49237;SDS011;35069;47.906;1.892;2023-03-05T08:19:41;21.92;;;14.45;;
49237;SDS011;35069;47.906;1.892;2023-03-05T08:22:07;26.70;;;14.45;;
49237;SDS011;35069;47.906;1.892;2023-03-05T08:24:32;25.05;;;15.88;;
49237;SDS011;35069;47.906;1.892;2023-03-05T08:26:59;20.00;;;13.02;;
49237;SDS011;35069;47.906;1.892;2023-03-05T08:29:24;23.13;;;15.48;;
49237;SDS011;35069;47.906;1.892;2023-03-05T08:31:51;23.65;;;14.77;;
49237;SDS011;35069;47.906;1.892;2023-03-05T08:34:17;31.35;;;14.70;;
49237;SDS011;35069;47.906;1.892;2023-03-05T08:36:44;22.42;;;14.30;;
49237;SDS011;35069;47.906;1.892;2023-03-05T08:39:10;26.85;;;15.93;;
49237;SDS011;35069;47.906;1.892;2023-03-05T08:41:36;22.35;;;13.48;;
49237;SDS011;35069;47.906;1.892;2023-03-05T08:44:01;24.33;;;14.98;;
49237;SDS011;35069;47.906;1.892;2023-03-05T08:46:27;28.42;;;17.02;;
49237;SDS011;35069;47.906;1.892;2023-03-05T08:48:53;22.67;;;14.88;;
49237;SDS011;35069;47.906;1.892;2023-03-05T08:51:20;26.70;;;15.73;;
49237;SDS011;35069;47.906;1.892;2023-03-05T08:53:51;26.98;;;14.80;;
49237;SDS011;35069;47.906;1.892;2023-03-05T08:56:18;25.00;;;14.27;;
49237;SDS011;35069;47.906;1.892;2023-03-05T08:58:44;22.63;;;14.23;;
49237;SDS011;35069;47.906;1.892;2023-03-05T09:01:11;23.70;;;15.48;;
49237;SDS011;35069;47.906;1.892;2023-03-05T09:03:37;29.85;;;16.45;;
49237;SDS011;35069;47.906;1.892;2023-03-05T09:06:04;24.52;;;14.13;;
49237;SDS011;35069;47.906;1.892;2023-03-05T09:08:32;26.95;;;15.60;;
49237;SDS011;35069;47.906;1.892;2023-03-05T09:11:00;23.52;;;15.00;;
49237;SDS011;35069;47.906;1.892;2023-03-05T09:13:30;22.65;;;13.75;;
49237;SDS011;35069;47.906;1.892;2023-03-05T09:15:57;23.50;;;14.52;;
49237;SDS011;35069;47.906;1.892;2023-03-05T09:18:24;24.27;;;14.15;;
49237;SDS011;35069;47.906;1.892;2023-03-05T09:20:50;24.73;;;15.40;;
49237;SDS011;35069;47.906;1.892;2023-03-05T09:23:16;25.52;;;15.98;;
49237;SDS011;35069;47.906;1.892;2023-03-05T09:25:42;23.77;;;15.18;;
49237;SDS011;35069;47.906;1.892;2023-03-05T09:28:07;25.73;;;16.10;;
49237;SDS011;35069;47.906;1.892;2023-03-05T09:30:33;26.63;;;15.77;;
49237;SDS011;35069;47.906;1.892;2023-03-05T09:32:59;21.20;;;14.75;;
49237;SDS011;35069;47.906;1.892;2023-03-05T09:35:26;23.48;;;14.52;;
49237;SDS011;35069;47.906;1.892;2023-03-05T09:37:52;22.90;;;14.57;;
49237;SDS011;35069;47.906;1.892;2023-03-05T09:40:18;23.23;;;15.38;;
49237;SDS011;35069;47.906;1.892;2023-03-05T09:45:31;21.58;;;14.90;;
49237;SDS011;35069;47.906;1.892;2023-03-05T09:48:05;24.00;;;13.88;;
49237;SDS011;35069;47.906;1.892;2023-03-05T09:50:46;23.08;;;14.57;;
49237;SDS011;35069;47.906;1.892;2023-03-05T09:53:24;24.48;;;14.80;;
49237;SDS011;35069;47.906;1.892;2023-03-05T09:56:13;19.15;;;13.40;;
49237;SDS011;35069;47.906;1.892;2023-03-05T10:01:14;24.77;;;15.77;;
49237;SDS011;35069;47.906;1.892;2023-03-05T10:03:49;22.52;;;13.95;;
49237;SDS011;35069;47.906;1.892;2023-03-05T10:06:30;22.20;;;14.02;;
49237;SDS011;35069;47.906;1.892;2023-03-05T10:11:54;20.98;;;13.50;;
49237;SDS011;35069;47.906;1.892;2023-03-05T10:14:33;23.02;;;13.85;;
49237;SDS011;35069;47.906;1.892;2023-03-05T10:20:19;21.55;;;14.32;;
49237;SDS011;35069;47.906;1.892;2023-03-05T10:25:52;21.67;;;12.77;;
49237;SDS011;35069;47.906;1.892;2023-03-05T10:37:02;19.55;;;13.35;;
49237;SDS011;35069;47.906;1.892;2023-03-05T10:42:40;21.83;;;13.60;;
49237;SDS011;35069;47.906;1.892;2023-03-05T10:47:56;18.98;;;12.73;;
49237;SDS011;35069;47.906;1.892;2023-03-05T10:50:45;22.35;;;12.73;;
49237;SDS011;35069;47.906;1.892;2023-03-05T10:58:45;17.17;;;10.75;;
49237;SDS011;35069;47.906;1.892;2023-03-05T11:03:50;17.75;;;10.48;;
49237;SDS011;35069;47.906;1.892;2023-03-05T11:14:31;15.05;;;11.63;;
49237;SDS011;35069;47.906;1.892;2023-03-05T11:16:57;11.98;;;9.23;;
49237;SDS011;35069;47.906;1.892;2023-03-05T11:19:25;13.98;;;10.63;;
49237;SDS011;35069;47.906;1.892;2023-03-05T11:22:04;13.77;;;9.52;;
49237;SDS011;35069;47.906;1.892;2023-03-05T11:24:36;12.65;;;9.48;;
49237;SDS011;35069;47.906;1.892;2023-03-05T11:27:19;12.07;;;9.05;;
49237;SDS011;35069;47.906;1.892;2023-03-05T11:30:20;12.90;;;9.30;;
49237;SDS011;35069;47.906;1.892;2023-03-05T11:35:43;12.68;;;9.95;;
49237;SDS011;35069;47.906;1.892;2023-03-05T11:38:19;13.38;;;8.43;;
49237;SDS011;35069;47.906;1.892;2023-03-05T11:40:51;10.90;;;7.43;;
49237;SDS011;35069;47.906;1.892;2023-03-05T11:43:20;12.52;;;9.23;;
49237;SDS011;35069;47.906;1.892;2023-03-05T11:45:48;11.02;;;7.53;;
49237;SDS011;35069;47.906;1.892;2023-03-05T11:51:27;9.95;;;7.78;;
49237;SDS011;35069;47.906;1.892;2023-03-05T11:54:20;9.45;;;7.30;;
49237;SDS011;35069;47.906;1.892;2023-03-05T11:56:50;11.03;;;8.20;;
49237;SDS011;35069;47.906;1.892;2023-03-05T11:59:18;9.60;;;7.78;;
49237;SDS011;35069;47.906;1.892;2023-03-05T12:04:17;7.75;;;6.88;;
49237;SDS011;35069;47.906;1.892;2023-03-05T12:06:48;9.75;;;8.13;;
49237;SDS011;35069;47.906;1.892;2023-03-05T12:09:38;12.35;;;8.07;;
49237;SDS011;35069;47.906;1.892;2023-03-05T12:14:49;9.88;;;7.97;;
49237;SDS011;35069;47.906;1.892;2023-03-05T12:17:36;8.23;;;6.60;;
49237;SDS011;35069;47.906;1.892;2023-03-05T12:20:34;12.85;;;7.72;;
49237;SDS011;35069;47.906;1.892;2023-03-05T12:23:12;11.45;;;7.68;;
49237;SDS011;35069;47.906;1.892;2023-03-05T12:25:49;12.02;;;8.60;;
49237;SDS011;35069;47.906;1.892;2023-03-05T12:30:54;12.83;;;7.60;;
49237;SDS011;35069;47.906;1.892;2023-03-05T12:33:30;10.65;;;7.28;;
49237;SDS011;35069;47.906;1.892;2023-03-05T12:38:42;11.65;;;8.50;;
49237;SDS011;35069;47.906;1.892;2023-03-05T12:46:29;11.57;;;7.13;;
49237;SDS011;35069;47.906;1.892;2023-03-05T12:48:57;10.07;;;7.55;;
49237;SDS011;35069;47.906;1.892;2023-03-05T12:51:27;12.90;;;9.10;;
49237;SDS011;35069;47.906;1.892;2023-03-05T12:54:11;10.50;;;8.05;;
49237;SDS011;35069;47.906;1.892;2023-03-05T12:56:45;10.82;;;7.63;;
49237;SDS011;35069;47.906;1.892;2023-03-05T12:59:11;11.40;;;8.43;;
49237;SDS011;35069;47.906;1.892;2023-03-05T13:01:59;12.48;;;8.63;;
49237;SDS011;35069;47.906;1.892;2023-03-05T13:04:30;11.10;;;7.90;;
49237;SDS011;35069;47.906;1.892;2023-03-05T13:06:58;10.02;;;7.97;;
49237;SDS011;35069;47.906;1.892;2023-03-05T13:09:29;11.68;;;8.23;;
49237;SDS011;35069;47.906;1.892;2023-03-05T13:11:59;14.75;;;8.38;;
49237;SDS011;35069;47.906;1.892;2023-03-05T13:17:23;12.40;;;7.43;;
49237;SDS011;35069;47.906;1.892;2023-03-05T13:19:48;10.88;;;8.32;;
49237;SDS011;35069;47.906;1.892;2023-03-05T13:22:14;13.50;;;8.98;;
49237;SDS011;35069;47.906;1.892;2023-03-05T13:24:40;10.75;;;7.32;;
49237;SDS011;35069;47.906;1.892;2023-03-05T13:27:27;11.25;;;7.80;;
49237;SDS011;35069;47.906;1.892;2023-03-05T13:29:55;12.40;;;8.35;;
49237;SDS011;35069;47.906;1.892;2023-03-05T13:32:23;9.60;;;7.20;;
49237;SDS011;35069;47.906;1.892;2023-03-05T13:34:51;11.32;;;7.13;;
49237;SDS011;35069;47.906;1.892;2023-03-05T13:37:26;12.50;;;8.80;;
49237;SDS011;35069;47.906;1.892;2023-03-05T13:40:00;11.05;;;8.18;;
49237;SDS011;35069;47.906;1.892;2023-03-05T13:42:32;9.98;;;6.95;;
49237;SDS011;35069;47.906;1.892;2023-03-05T13:45:15;10.85;;;7.05;;
49237;SDS011;35069;47.906;1.892;2023-03-05T13:50:23;13.18;;;7.55;;
49237;SDS011;35069;47.906;1.892;2023-03-05T13:52:52;9.18;;;6.78;;
49237;SDS011;35069;47.906;1.892;2023-03-05T13:55:18;10.27;;;7.00;;
49237;SDS011;35069;47.906;1.892;2023-03-05T13:57:45;10.77;;;8.05;;
49237;SDS011;35069;47.906;1.892;2023-03-05T14:02:52;11.18;;;6.95;;
49237;SDS011;35069;47.906;1.892;2023-03-05T14:05:20;12.00;;;7.47;;
49237;SDS011;35069;47.906;1.892;2023-03-05T14:07:47;11.40;;;8.02;;
49237;SDS011;35069;47.906;1.892;2023-03-05T14:12:53;12.48;;;7.30;;
49237;SDS011;35069;47.906;1.892;2023-03-05T14:15:29;14.30;;;8.38;;
49237;SDS011;35069;47.906;1.892;2023-03-05T14:20:55;9.90;;;7.93;;
49237;SDS011;35069;47.906;1.892;2023-03-05T14:29:00;12.80;;;8.43;;
49237;SDS011;35069;47.906;1.892;2023-03-05T14:31:29;10.32;;;7.45;;
49237;SDS011;35069;47.906;1.892;2023-03-05T14:33:59;9.27;;;6.47;;
49237;SDS011;35069;47.906;1.892;2023-03-05T14:36:27;9.77;;;6.78;;
49237;SDS011;35069;47.906;1.892;2023-03-05T14:38:54;8.00;;;6.45;;
49237;SDS011;35069;47.906;1.892;2023-03-05T14:41:32;9.02;;;7.53;;
49237;SDS011;35069;47.906;1.892;2023-03-05T14:44:01;8.95;;;6.82;;
49237;SDS011;35069;47.906;1.892;2023-03-05T14:46:35;12.82;;;6.35;;
49237;SDS011;35069;47.906;1.892;2023-03-05T14:49:00;8.15;;;5.70;;
49237;SDS011;35069;47.906;1.892;2023-03-05T14:51:26;10.27;;;6.75;;
49237;SDS011;35069;47.906;1.892;2023-03-05T14:53:52;10.07;;;7.40;;
49237;SDS011;35069;47.906;1.892;2023-03-05T14:56:23;11.95;;;6.95;;
49237;SDS011;35069;47.906;1.892;2023-03-05T14:58:52;7.15;;;6.28;;
49237;SDS011;35069;47.906;1.892;2023-03-05T15:01:18;8.27;;;6.50;;
49237;SDS011;35069;47.906;1.892;2023-03-05T15:03:44;7.40;;;5.97;;
49237;SDS011;35069;47.906;1.892;2023-03-05T15:06:15;10.27;;;7.40;;
49237;SDS011;35069;47.906;1.892;2023-03-05T15:09:02;8.52;;;6.70;;
49237;SDS011;35069;47.906;1.892;2023-03-05T15:11:29;7.78;;;6.45;;
49237;SDS011;35069;47.906;1.892;2023-03-05T15:13:54;10.10;;;6.85;;
49237;SDS011;35069;47.906;1.892;2023-03-05T15:16:20;10.50;;;6.85;;
49237;SDS011;35069;47.906;1.892;2023-03-05T15:18:47;9.80;;;6.80;;
49237;SDS011;35069;47.906;1.892;2023-03-05T15:21:13;16.38;;;6.97;;
49237;SDS011;35069;47.906;1.892;2023-03-05T15:23:39;7.32;;;5.70;;
49237;SDS011;35069;47.906;1.892;2023-03-05T15:26:06;9.18;;;6.43;;
49237;SDS011;35069;47.906;1.892;2023-03-05T15:28:34;9.70;;;6.95;;
49237;SDS011;35069;47.906;1.892;2023-03-05T15:31:01;8.70;;;6.60;;
49237;SDS011;35069;47.906;1.892;2023-03-05T15:33:28;8.70;;;6.38;;
49237;SDS011;35069;47.906;1.892;2023-03-05T15:35:55;8.32;;;6.15;;
49237;SDS011;35069;47.906;1.892;2023-03-05T15:38:21;7.80;;;5.43;;
49237;SDS011;35069;47.906;1.892;2023-03-05T15:40:48;9.75;;;6.60;;
49237;SDS011;35069;47.906;1.892;2023-03-05T15:43:14;10.50;;;7.50;;
49237;SDS011;35069;47.906;1.892;2023-03-05T15:45:40;11.57;;;7.10;;
49237;SDS011;35069;47.906;1.892;2023-03-05T15:48:06;10.02;;;6.00;;
49237;SDS011;35069;47.906;1.892;2023-03-05T15:50:32;9.30;;;6.68;;
49237;SDS011;35069;47.906;1.892;2023-03-05T15:52:57;10.90;;;7.85;;
49237;SDS011;35069;47.906;1.892;2023-03-05T15:55:23;12.75;;;6.72;;
49237;SDS011;35069;47.906;1.892;2023-03-05T15:57:49;10.50;;;6.72;;
49237;SDS011;35069;47.906;1.892;2023-03-05T16:00:17;8.57;;;6.43;;
49237;SDS011;35069;47.906;1.892;2023-03-05T16:02:45;8.02;;;5.88;;